Hovedside
METAR-TAF:

METAR-TAF

Lufthavner :

Såtenäs, Sverige

breddegrad: 58-26N, lengdegrad: 012-42E, høyde over havet: 54 m

Gjeldene værobservasjon

Denne rapporten ble laget for 12 minutter siden, klokken 07:20 UTC
Vind 16 kt fra Vest
Temperatur 11°C
Luftfuktighet 66%
Trykk 1013 hPa
Sikt 10 km eller mer
ingen skyer under 1500 m og ingen bygeskyer

METAR: ESIB 210720Z 28016KT CAVOK 11/05 Q1013

Tid: 09:32 (07:32 UTC)

Varsel

Denne rapporten ble laget for 1 time og 2 minutter siden, klokken 06:30 UTC
Varsel gyldig fra 21. klokken 07 UTC til 21. klokken 09 UTC
Vind 15 kt fra Vest
Sikt 10 km eller mer
ingen skyer under 1500 m og ingen bygeskyer

TAF: ESIB 210630Z 2107/2109 28015KT CAVOK RMK MIL

Værobservasjoner og værvarsel for over 4000 flyplasser (METAR- og TAF-rapporter).

Tilgjengelige stasjoner er representert av de røde og gule prikkene på kartet.

Hold musepekeren over prikken for å se navnet på stasjonen.

Klikk så for å se værobservasjoner og -varsler.

For å forandre kartet kan du klikke på den grønne knappen med svart kryss for å zoome inn, på den grønne knappen med strek for å zoome ut, eller på de grønne pilene for å se tilstøtende kart.


METAR-TAF: